sensor_id;sensor_type;location;lat;lon;timestamp;temperature;humidity
37300;DHT22;23184;51.902;12.836;2023-09-19T00:01:20;17.30;99.90
37300;DHT22;23184;51.902;12.836;2023-09-19T00:03:46;17.30;99.90
37300;DHT22;23184;51.902;12.836;2023-09-19T00:06:11;17.30;99.90
37300;DHT22;23184;51.902;12.836;2023-09-19T00:08:41;17.30;99.90
37300;DHT22;23184;51.902;12.836;2023-09-19T00:11:09;17.30;99.90
37300;DHT22;23184;51.902;12.836;2023-09-19T00:13:36;17.30;99.90
37300;DHT22;23184;51.902;12.836;2023-09-19T00:16:09;17.30;99.90
37300;DHT22;23184;51.902;12.836;2023-09-19T00:18:36;17.30;99.90
37300;DHT22;23184;51.902;12.836;2023-09-19T00:21:02;17.30;99.90
37300;DHT22;23184;51.902;12.836;2023-09-19T00:23:30;17.30;99.90
37300;DHT22;23184;51.902;12.836;2023-09-19T00:25:59;17.30;99.90
37300;DHT22;23184;51.902;12.836;2023-09-19T00:28:24;17.20;99.90
37300;DHT22;23184;51.902;12.836;2023-09-19T00:30:51;17.20;99.90
37300;DHT22;23184;51.902;12.836;2023-09-19T00:33:17;17.20;99.90
37300;DHT22;23184;51.902;12.836;2023-09-19T00:35:48;17.20;99.90
37300;DHT22;23184;51.902;12.836;2023-09-19T00:38:14;17.20;99.90
37300;DHT22;23184;51.902;12.836;2023-09-19T00:40:47;17.20;99.90
37300;DHT22;23184;51.902;12.836;2023-09-19T00:43:13;17.20;99.90
37300;DHT22;23184;51.902;12.836;2023-09-19T00:45:43;17.20;99.90
37300;DHT22;23184;51.902;12.836;2023-09-19T00:48:09;17.10;99.90
37300;DHT22;23184;51.902;12.836;2023-09-19T00:50:35;17.10;99.90
37300;DHT22;23184;51.902;12.836;2023-09-19T00:53:02;17.00;99.90
37300;DHT22;23184;51.902;12.836;2023-09-19T00:55:36;16.90;99.90
37300;DHT22;23184;51.902;12.836;2023-09-19T00:58:08;16.90;99.90
37300;DHT22;23184;51.902;12.836;2023-09-19T01:00:35;16.80;99.90
37300;DHT22;23184;51.902;12.836;2023-09-19T01:03:01;16.80;99.90
37300;DHT22;23184;51.902;12.836;2023-09-19T01:05:27;16.70;99.90
37300;DHT22;23184;51.902;12.836;2023-09-19T01:07:53;16.70;99.90
37300;DHT22;23184;51.902;12.836;2023-09-19T01:10:20;16.70;99.90
37300;DHT22;23184;51.902;12.836;2023-09-19T01:13:03;16.70;99.90
37300;DHT22;23184;51.902;12.836;2023-09-19T01:18:19;16.70;99.90
37300;DHT22;23184;51.902;12.836;2023-09-19T01:20:54;16.60;99.90
37300;DHT22;23184;51.902;12.836;2023-09-19T01:23:38;16.60;99.90
37300;DHT22;23184;51.902;12.836;2023-09-19T01:28:51;16.60;99.90
37300;DHT22;23184;51.902;12.836;2023-09-19T01:31:20;16.50;99.90
37300;DHT22;23184;51.902;12.836;2023-09-19T01:34:00;16.50;99.90
37300;DHT22;23184;51.902;12.836;2023-09-19T01:36:27;16.50;99.90
37300;DHT22;23184;51.902;12.836;2023-09-19T01:38:54;16.50;99.90
37300;DHT22;23184;51.902;12.836;2023-09-19T01:41:38;16.50;99.90
37300;DHT22;23184;51.902;12.836;2023-09-19T01:44:09;16.50;99.90
37300;DHT22;23184;51.902;12.836;2023-09-19T01:46:40;16.50;99.90
37300;DHT22;23184;51.902;12.836;2023-09-19T01:54:44;16.40;99.90
37300;DHT22;23184;51.902;12.836;2023-09-19T01:57:16;16.30;99.90
37300;DHT22;23184;51.902;12.836;2023-09-19T01:59:48;16.30;99.90
37300;DHT22;23184;51.902;12.836;2023-09-19T02:02:17;16.20;99.90
37300;DHT22;23184;51.902;12.836;2023-09-19T02:04:46;16.20;99.90
37300;DHT22;23184;51.902;12.836;2023-09-19T02:07:13;16.20;99.90
37300;DHT22;23184;51.902;12.836;2023-09-19T02:09:42;16.30;99.90
37300;DHT22;23184;51.902;12.836;2023-09-19T02:12:09;16.30;99.90
37300;DHT22;23184;51.902;12.836;2023-09-19T02:14:34;16.30;99.90
37300;DHT22;23184;51.902;12.836;2023-09-19T02:17:02;16.30;99.90
37300;DHT22;23184;51.902;12.836;2023-09-19T02:19:32;16.30;99.90
37300;DHT22;23184;51.902;12.836;2023-09-19T02:21:59;16.40;99.90
37300;DHT22;23184;51.902;12.836;2023-09-19T02:24:25;16.50;99.90
37300;DHT22;23184;51.902;12.836;2023-09-19T02:26:52;16.50;99.90
37300;DHT22;23184;51.902;12.836;2023-09-19T02:29:17;16.40;99.90
37300;DHT22;23184;51.902;12.836;2023-09-19T02:31:43;16.40;99.90
37300;DHT22;23184;51.902;12.836;2023-09-19T02:34:08;16.40;99.90
37300;DHT22;23184;51.902;12.836;2023-09-19T02:36:35;16.30;99.90
37300;DHT22;23184;51.902;12.836;2023-09-19T02:39:01;16.30;99.90
37300;DHT22;23184;51.902;12.836;2023-09-19T02:41:26;16.30;99.90
37300;DHT22;23184;51.902;12.836;2023-09-19T02:43:54;16.20;99.90
37300;DHT22;23184;51.902;12.836;2023-09-19T02:46:20;16.20;99.90
37300;DHT22;23184;51.902;12.836;2023-09-19T02:48:46;16.10;99.90
37300;DHT22;23184;51.902;12.836;2023-09-19T02:51:12;16.20;99.90
37300;DHT22;23184;51.902;12.836;2023-09-19T02:53:39;16.10;99.90
37300;DHT22;23184;51.902;12.836;2023-09-19T02:56:05;16.10;99.90
37300;DHT22;23184;51.902;12.836;2023-09-19T02:58:30;16.00;99.90
37300;DHT22;23184;51.902;12.836;2023-09-19T03:01:10;16.00;99.90
37300;DHT22;23184;51.902;12.836;2023-09-19T03:03:38;16.10;99.90
37300;DHT22;23184;51.902;12.836;2023-09-19T03:06:08;16.10;99.90
37300;DHT22;23184;51.902;12.836;2023-09-19T03:08:34;16.10;99.90
37300;DHT22;23184;51.902;12.836;2023-09-19T03:11:06;16.10;99.90
37300;DHT22;23184;51.902;12.836;2023-09-19T03:13:33;16.10;99.90
37300;DHT22;23184;51.902;12.836;2023-09-19T03:15:58;16.10;99.90
37300;DHT22;23184;51.902;12.836;2023-09-19T03:18:24;16.10;99.90
37300;DHT22;23184;51.902;12.836;2023-09-19T03:20:55;16.10;99.90
37300;DHT22;23184;51.902;12.836;2023-09-19T03:23:22;16.20;99.90
37300;DHT22;23184;51.902;12.836;2023-09-19T03:25:47;16.20;99.90
37300;DHT22;23184;51.902;12.836;2023-09-19T03:28:13;16.10;99.90
37300;DHT22;23184;51.902;12.836;2023-09-19T03:30:40;16.10;99.90
37300;DHT22;23184;51.902;12.836;2023-09-19T03:33:06;16.20;99.90
37300;DHT22;23184;51.902;12.836;2023-09-19T03:35:31;16.30;99.90
37300;DHT22;23184;51.902;12.836;2023-09-19T03:37:57;16.40;99.90
37300;DHT22;23184;51.902;12.836;2023-09-19T03:40:23;16.30;99.90
37300;DHT22;23184;51.902;12.836;2023-09-19T03:42:49;16.40;99.90
37300;DHT22;23184;51.902;12.836;2023-09-19T03:45:14;16.40;99.90
37300;DHT22;23184;51.902;12.836;2023-09-19T03:47:41;16.50;99.90
37300;DHT22;23184;51.902;12.836;2023-09-19T03:50:07;16.40;99.90
37300;DHT22;23184;51.902;12.836;2023-09-19T03:52:33;16.30;99.90
37300;DHT22;23184;51.902;12.836;2023-09-19T03:54:59;16.30;99.90
37300;DHT22;23184;51.902;12.836;2023-09-19T03:57:25;16.30;99.90
37300;DHT22;23184;51.902;12.836;2023-09-19T03:59:51;16.30;99.90
37300;DHT22;23184;51.902;12.836;2023-09-19T04:02:19;16.30;99.90
37300;DHT22;23184;51.902;12.836;2023-09-19T04:04:51;16.20;99.90
37300;DHT22;23184;51.902;12.836;2023-09-19T04:07:18;16.20;99.90
37300;DHT22;23184;51.902;12.836;2023-09-19T04:09:48;16.20;99.90
37300;DHT22;23184;51.902;12.836;2023-09-19T04:12:14;16.10;99.90
37300;DHT22;23184;51.902;12.836;2023-09-19T04:14:42;16.20;99.90
37300;DHT22;23184;51.902;12.836;2023-09-19T04:17:08;16.20;99.90
37300;DHT22;23184;51.902;12.836;2023-09-19T04:19:33;16.10;99.90
37300;DHT22;23184;51.902;12.836;2023-09-19T04:21:59;16.10;99.90
37300;DHT22;23184;51.902;12.836;2023-09-19T04:24:24;16.10;99.90
37300;DHT22;23184;51.902;12.836;2023-09-19T04:26:49;16.10;99.90
37300;DHT22;23184;51.902;12.836;2023-09-19T04:29:15;16.00;99.90
37300;DHT22;23184;51.902;12.836;2023-09-19T04:31:41;16.00;99.90
37300;DHT22;23184;51.902;12.836;2023-09-19T04:34:09;15.90;99.90
37300;DHT22;23184;51.902;12.836;2023-09-19T04:36:35;15.90;99.90
37300;DHT22;23184;51.902;12.836;2023-09-19T04:39:02;15.90;99.90
37300;DHT22;23184;51.902;12.836;2023-09-19T04:41:30;15.90;99.90
37300;DHT22;23184;51.902;12.836;2023-09-19T04:43:56;15.90;99.90
37300;DHT22;23184;51.902;12.836;2023-09-19T04:46:21;15.90;99.90
37300;DHT22;23184;51.902;12.836;2023-09-19T04:48:47;15.90;99.90
37300;DHT22;23184;51.902;12.836;2023-09-19T04:51:12;15.80;99.90
37300;DHT22;23184;51.902;12.836;2023-09-19T04:53:39;15.80;99.90
37300;DHT22;23184;51.902;12.836;2023-09-19T04:56:04;15.80;99.90
37300;DHT22;23184;51.902;12.836;2023-09-19T04:58:33;15.90;99.90
37300;DHT22;23184;51.902;12.836;2023-09-19T05:00:59;15.80;99.90
37300;DHT22;23184;51.902;12.836;2023-09-19T05:03:25;15.90;99.90
37300;DHT22;23184;51.902;12.836;2023-09-19T05:05:50;15.80;99.90
37300;DHT22;23184;51.902;12.836;2023-09-19T05:08:16;15.70;99.90
37300;DHT22;23184;51.902;12.836;2023-09-19T05:10:41;15.70;99.90
37300;DHT22;23184;51.902;12.836;2023-09-19T05:13:07;15.80;99.90
37300;DHT22;23184;51.902;12.836;2023-09-19T05:15:33;15.90;99.90
37300;DHT22;23184;51.902;12.836;2023-09-19T05:17:59;15.90;99.90
37300;DHT22;23184;51.902;12.836;2023-09-19T05:20:25;16.00;99.90
37300;DHT22;23184;51.902;12.836;2023-09-19T05:23:06;16.00;99.90
37300;DHT22;23184;51.902;12.836;2023-09-19T05:25:36;16.00;99.90
37300;DHT22;23184;51.902;12.836;2023-09-19T05:28:03;16.00;99.90
37300;DHT22;23184;51.902;12.836;2023-09-19T05:30:32;16.10;99.90
37300;DHT22;23184;51.902;12.836;2023-09-19T05:32:58;16.10;99.90
37300;DHT22;23184;51.902;12.836;2023-09-19T05:35:24;16.10;99.90
37300;DHT22;23184;51.902;12.836;2023-09-19T05:37:53;16.10;99.90
37300;DHT22;23184;51.902;12.836;2023-09-19T05:40:20;16.10;99.90
37300;DHT22;23184;51.902;12.836;2023-09-19T05:42:46;16.00;99.90
37300;DHT22;23184;51.902;12.836;2023-09-19T05:45:13;16.00;99.90
37300;DHT22;23184;51.902;12.836;2023-09-19T05:47:41;15.90;99.90
37300;DHT22;23184;51.902;12.836;2023-09-19T05:50:09;15.90;99.90
37300;DHT22;23184;51.902;12.836;2023-09-19T05:52:35;15.90;99.90
37300;DHT22;23184;51.902;12.836;2023-09-19T05:55:04;15.90;99.90
37300;DHT22;23184;51.902;12.836;2023-09-19T05:57:31;15.90;99.90
37300;DHT22;23184;51.902;12.836;2023-09-19T05:59:58;16.00;99.90
37300;DHT22;23184;51.902;12.836;2023-09-19T06:02:23;16.00;99.90
37300;DHT22;23184;51.902;12.836;2023-09-19T06:04:48;16.00;99.90
37300;DHT22;23184;51.902;12.836;2023-09-19T06:07:14;16.10;99.90
37300;DHT22;23184;51.902;12.836;2023-09-19T06:09:41;16.20;99.90
37300;DHT22;23184;51.902;12.836;2023-09-19T06:12:07;16.30;99.90
37300;DHT22;23184;51.902;12.836;2023-09-19T06:14:32;16.40;99.90
37300;DHT22;23184;51.902;12.836;2023-09-19T06:16:58;16.50;99.90
37300;DHT22;23184;51.902;12.836;2023-09-19T06:19:25;16.60;99.90
37300;DHT22;23184;51.902;12.836;2023-09-19T06:21:52;16.60;99.90
37300;DHT22;23184;51.902;12.836;2023-09-19T06:24:19;16.60;99.90
37300;DHT22;23184;51.902;12.836;2023-09-19T06:26:45;16.60;99.90
37300;DHT22;23184;51.902;12.836;2023-09-19T06:29:10;16.60;99.90
37300;DHT22;23184;51.902;12.836;2023-09-19T06:31:38;16.80;99.90
37300;DHT22;23184;51.902;12.836;2023-09-19T06:34:04;16.90;99.90
37300;DHT22;23184;51.902;12.836;2023-09-19T06:36:29;17.10;99.90
37300;DHT22;23184;51.902;12.836;2023-09-19T06:38:55;17.40;99.90
37300;DHT22;23184;51.902;12.836;2023-09-19T06:41:21;17.80;99.90
37300;DHT22;23184;51.902;12.836;2023-09-19T06:43:50;18.30;99.90
37300;DHT22;23184;51.902;12.836;2023-09-19T06:46:18;18.50;99.90
37300;DHT22;23184;51.902;12.836;2023-09-19T06:48:44;18.80;99.90
37300;DHT22;23184;51.902;12.836;2023-09-19T06:51:10;19.00;99.90
37300;DHT22;23184;51.902;12.836;2023-09-19T06:53:35;19.20;99.90
37300;DHT22;23184;51.902;12.836;2023-09-19T06:56:02;19.50;99.90
37300;DHT22;23184;51.902;12.836;2023-09-19T06:58:27;19.30;99.90
37300;DHT22;23184;51.902;12.836;2023-09-19T07:00:53;19.50;99.90
37300;DHT22;23184;51.902;12.836;2023-09-19T07:03:19;19.50;99.90
37300;DHT22;23184;51.902;12.836;2023-09-19T07:05:47;19.50;99.90
37300;DHT22;23184;51.902;12.836;2023-09-19T07:08:13;19.80;99.90
37300;DHT22;23184;51.902;12.836;2023-09-19T07:10:40;20.00;99.90
37300;DHT22;23184;51.902;12.836;2023-09-19T07:13:07;20.20;99.90
37300;DHT22;23184;51.902;12.836;2023-09-19T07:15:36;20.20;99.90
37300;DHT22;23184;51.902;12.836;2023-09-19T07:18:05;20.70;99.90
37300;DHT22;23184;51.902;12.836;2023-09-19T07:20:31;21.00;99.90
37300;DHT22;23184;51.902;12.836;2023-09-19T07:22:58;21.00;99.90
37300;DHT22;23184;51.902;12.836;2023-09-19T07:25:27;21.10;99.90
37300;DHT22;23184;51.902;12.836;2023-09-19T07:27:55;21.20;99.90
37300;DHT22;23184;51.902;12.836;2023-09-19T07:30:21;20.70;99.90
37300;DHT22;23184;51.902;12.836;2023-09-19T07:32:47;20.60;99.90
37300;DHT22;23184;51.902;12.836;2023-09-19T07:35:13;20.30;99.90
37300;DHT22;23184;51.902;12.836;2023-09-19T07:37:39;20.30;99.90
37300;DHT22;23184;51.902;12.836;2023-09-19T07:40:05;20.60;99.90
37300;DHT22;23184;51.902;12.836;2023-09-19T07:42:35;20.90;99.90
37300;DHT22;23184;51.902;12.836;2023-09-19T07:45:04;21.20;99.90
37300;DHT22;23184;51.902;12.836;2023-09-19T07:47:30;21.10;99.90
37300;DHT22;23184;51.902;12.836;2023-09-19T07:49:58;20.80;99.90
37300;DHT22;23184;51.902;12.836;2023-09-19T07:52:24;20.80;99.90
37300;DHT22;23184;51.902;12.836;2023-09-19T07:54:49;20.60;99.90
37300;DHT22;23184;51.902;12.836;2023-09-19T07:57:15;20.10;99.90
37300;DHT22;23184;51.902;12.836;2023-09-19T07:59:41;20.20;99.90
37300;DHT22;23184;51.902;12.836;2023-09-19T08:02:08;20.50;99.90
37300;DHT22;23184;51.902;12.836;2023-09-19T08:04:35;21.00;99.90
37300;DHT22;23184;51.902;12.836;2023-09-19T08:07:00;21.10;99.90
37300;DHT22;23184;51.902;12.836;2023-09-19T08:09:29;20.70;99.90
37300;DHT22;23184;51.902;12.836;2023-09-19T08:11:58;20.20;99.90
37300;DHT22;23184;51.902;12.836;2023-09-19T08:14:24;19.80;99.90
37300;DHT22;23184;51.902;12.836;2023-09-19T08:16:51;20.00;99.90
37300;DHT22;23184;51.902;12.836;2023-09-19T08:19:16;20.70;99.90
37300;DHT22;23184;51.902;12.836;2023-09-19T08:21:42;21.10;99.90
37300;DHT22;23184;51.902;12.836;2023-09-19T08:24:12;21.00;99.90
37300;DHT22;23184;51.902;12.836;2023-09-19T08:26:37;20.80;99.90
37300;DHT22;23184;51.902;12.836;2023-09-19T08:29:03;20.40;99.90
37300;DHT22;23184;51.902;12.836;2023-09-19T08:31:30;20.10;99.90
37300;DHT22;23184;51.902;12.836;2023-09-19T08:33:56;19.60;99.90
37300;DHT22;23184;51.902;12.836;2023-09-19T08:36:21;19.20;99.90
37300;DHT22;23184;51.902;12.836;2023-09-19T08:38:47;19.10;99.90
37300;DHT22;23184;51.902;12.836;2023-09-19T08:41:17;19.40;99.90
37300;DHT22;23184;51.902;12.836;2023-09-19T08:43:42;19.20;99.90
37300;DHT22;23184;51.902;12.836;2023-09-19T08:46:14;19.50;99.90
37300;DHT22;23184;51.902;12.836;2023-09-19T08:52:00;20.80;99.90
37300;DHT22;23184;51.902;12.836;2023-09-19T08:54:32;21.50;99.90
37300;DHT22;23184;51.902;12.836;2023-09-19T08:57:06;21.80;99.90
37300;DHT22;23184;51.902;12.836;2023-09-19T08:59:33;21.60;99.90
37300;DHT22;23184;51.902;12.836;2023-09-19T09:02:01;20.90;99.90
37300;DHT22;23184;51.902;12.836;2023-09-19T09:04:29;21.00;99.90
37300;DHT22;23184;51.902;12.836;2023-09-19T09:06:56;20.90;99.90
37300;DHT22;23184;51.902;12.836;2023-09-19T09:09:23;20.70;99.90
37300;DHT22;23184;51.902;12.836;2023-09-19T09:11:49;20.50;99.90
37300;DHT22;23184;51.902;12.836;2023-09-19T09:14:19;20.20;99.90
37300;DHT22;23184;51.902;12.836;2023-09-19T09:16:45;20.00;99.90
37300;DHT22;23184;51.902;12.836;2023-09-19T09:19:11;19.80;99.90
37300;DHT22;23184;51.902;12.836;2023-09-19T09:21:38;19.50;99.90
37300;DHT22;23184;51.902;12.836;2023-09-19T09:24:26;19.30;99.90
37300;DHT22;23184;51.902;12.836;2023-09-19T09:26:51;19.10;99.90
37300;DHT22;23184;51.902;12.836;2023-09-19T09:29:48;19.00;99.90
37300;DHT22;23184;51.902;12.836;2023-09-19T09:32:27;18.90;99.90
37300;DHT22;23184;51.902;12.836;2023-09-19T09:34:58;19.10;99.90
37300;DHT22;23184;51.902;12.836;2023-09-19T09:37:25;19.20;99.90
37300;DHT22;23184;51.902;12.836;2023-09-19T09:39:53;19.40;99.90
37300;DHT22;23184;51.902;12.836;2023-09-19T09:42:32;19.60;99.90
37300;DHT22;23184;51.902;12.836;2023-09-19T09:45:16;19.50;99.90
37300;DHT22;23184;51.902;12.836;2023-09-19T09:47:47;19.40;99.90
37300;DHT22;23184;51.902;12.836;2023-09-19T09:50:31;19.80;99.90
37300;DHT22;23184;51.902;12.836;2023-09-19T09:53:27;20.30;99.90
37300;DHT22;23184;51.902;12.836;2023-09-19T09:56:05;20.60;99.90
37300;DHT22;23184;51.902;12.836;2023-09-19T09:58:32;21.00;99.90
37300;DHT22;23184;51.902;12.836;2023-09-19T10:00:59;21.20;99.90
37300;DHT22;23184;51.902;12.836;2023-09-19T10:03:41;20.80;99.90
37300;DHT22;23184;51.902;12.836;2023-09-19T10:06:14;20.80;99.90
37300;DHT22;23184;51.902;12.836;2023-09-19T10:09:06;20.80;99.90
37300;DHT22;23184;51.902;12.836;2023-09-19T10:11:38;21.00;99.90
37300;DHT22;23184;51.902;12.836;2023-09-19T10:14:06;21.10;99.90
37300;DHT22;23184;51.902;12.836;2023-09-19T10:16:34;21.40;99.90
37300;DHT22;23184;51.902;12.836;2023-09-19T10:19:02;21.50;99.90
37300;DHT22;23184;51.902;12.836;2023-09-19T10:21:30;21.40;99.90
37300;DHT22;23184;51.902;12.836;2023-09-19T10:23:58;21.60;99.90
37300;DHT22;23184;51.902;12.836;2023-09-19T10:26:26;21.60;99.90
37300;DHT22;23184;51.902;12.836;2023-09-19T10:28:57;21.20;99.90
37300;DHT22;23184;51.902;12.836;2023-09-19T10:31:26;21.30;99.90
37300;DHT22;23184;51.902;12.836;2023-09-19T10:33:53;21.20;99.90
37300;DHT22;23184;51.902;12.836;2023-09-19T10:36:24;21.30;99.90
37300;DHT22;23184;51.902;12.836;2023-09-19T10:38:52;21.30;99.90
37300;DHT22;23184;51.902;12.836;2023-09-19T10:41:22;21.00;99.90
37300;DHT22;23184;51.902;12.836;2023-09-19T10:43:48;21.30;99.90
37300;DHT22;23184;51.902;12.836;2023-09-19T10:46:16;21.00;99.90
37300;DHT22;23184;51.902;12.836;2023-09-19T10:48:42;20.90;99.90
37300;DHT22;23184;51.902;12.836;2023-09-19T10:51:18;21.00;99.90
37300;DHT22;23184;51.902;12.836;2023-09-19T10:53:49;21.30;99.90
37300;DHT22;23184;51.902;12.836;2023-09-19T10:56:21;21.10;99.90
37300;DHT22;23184;51.902;12.836;2023-09-19T10:58:48;21.00;99.90
37300;DHT22;23184;51.902;12.836;2023-09-19T11:01:14;21.40;99.90
37300;DHT22;23184;51.902;12.836;2023-09-19T11:03:41;21.60;99.90
37300;DHT22;23184;51.902;12.836;2023-09-19T11:06:16;21.60;99.90
37300;DHT22;23184;51.902;12.836;2023-09-19T11:09:02;21.20;99.90
37300;DHT22;23184;51.902;12.836;2023-09-19T11:30:34;21.90;99.90
37300;DHT22;23184;51.902;12.836;2023-09-19T11:36:07;21.90;99.90
37300;DHT22;23184;51.902;12.836;2023-09-19T11:46:21;21.50;99.90
37300;DHT22;23184;51.902;12.836;2023-09-19T11:48:50;21.40;99.90
37300;DHT22;23184;51.902;12.836;2023-09-19T11:51:18;21.60;99.90
37300;DHT22;23184;51.902;12.836;2023-09-19T11:53:55;21.70;99.90
37300;DHT22;23184;51.902;12.836;2023-09-19T11:56:24;21.50;99.90
37300;DHT22;23184;51.902;12.836;2023-09-19T11:58:53;21.80;99.90
37300;DHT22;23184;51.902;12.836;2023-09-19T12:01:32;21.80;99.90
37300;DHT22;23184;51.902;12.836;2023-09-19T12:04:03;21.80;99.90
37300;DHT22;23184;51.902;12.836;2023-09-19T12:06:30;21.60;99.90
37300;DHT22;23184;51.902;12.836;2023-09-19T12:08:58;21.30;99.90
37300;DHT22;23184;51.902;12.836;2023-09-19T12:11:29;21.00;99.90
37300;DHT22;23184;51.902;12.836;2023-09-19T12:13:55;20.90;99.90
37300;DHT22;23184;51.902;12.836;2023-09-19T12:16:25;21.20;99.90
37300;DHT22;23184;51.902;12.836;2023-09-19T12:18:51;21.40;99.90
37300;DHT22;23184;51.902;12.836;2023-09-19T12:21:29;21.60;99.90
37300;DHT22;23184;51.902;12.836;2023-09-19T12:27:00;22.30;99.90
37300;DHT22;23184;51.902;12.836;2023-09-19T12:29:30;22.80;99.90
37300;DHT22;23184;51.902;12.836;2023-09-19T12:31:57;23.40;99.90
37300;DHT22;23184;51.902;12.836;2023-09-19T12:34:27;23.50;99.90
37300;DHT22;23184;51.902;12.836;2023-09-19T12:37:12;23.20;99.90
37300;DHT22;23184;51.902;12.836;2023-09-19T12:39:42;22.60;99.90
37300;DHT22;23184;51.902;12.836;2023-09-19T12:42:10;22.00;99.90
37300;DHT22;23184;51.902;12.836;2023-09-19T12:44:37;21.90;99.90
37300;DHT22;23184;51.902;12.836;2023-09-19T12:47:25;21.90;99.90
37300;DHT22;23184;51.902;12.836;2023-09-19T12:52:38;22.40;99.90
37300;DHT22;23184;51.902;12.836;2023-09-19T12:55:04;23.10;99.90
37300;DHT22;23184;51.902;12.836;2023-09-19T12:57:32;23.50;99.90
37300;DHT22;23184;51.902;12.836;2023-09-19T13:00:03;23.40;99.90
37300;DHT22;23184;51.902;12.836;2023-09-19T13:02:31;23.20;99.90
37300;DHT22;23184;51.902;12.836;2023-09-19T13:04:57;22.70;99.90
37300;DHT22;23184;51.902;12.836;2023-09-19T13:07:44;22.40;99.90
37300;DHT22;23184;51.902;12.836;2023-09-19T13:10:11;22.50;99.90
37300;DHT22;23184;51.902;12.836;2023-09-19T13:12:40;22.70;99.90
37300;DHT22;23184;51.902;12.836;2023-09-19T13:15:11;22.70;99.90
37300;DHT22;23184;51.902;12.836;2023-09-19T13:17:44;22.60;99.90
37300;DHT22;23184;51.902;12.836;2023-09-19T13:20:22;22.00;99.90
37300;DHT22;23184;51.902;12.836;2023-09-19T13:22:53;21.60;99.90
37300;DHT22;23184;51.902;12.836;2023-09-19T13:25:26;22.20;99.90
37300;DHT22;23184;51.902;12.836;2023-09-19T13:27:54;22.60;99.90
37300;DHT22;23184;51.902;12.836;2023-09-19T13:30:31;22.60;99.90
37300;DHT22;23184;51.902;12.836;2023-09-19T13:33:10;22.80;99.90
37300;DHT22;23184;51.902;12.836;2023-09-19T13:35:36;22.80;99.90
37300;DHT22;23184;51.902;12.836;2023-09-19T13:38:04;23.00;99.90
37300;DHT22;23184;51.902;12.836;2023-09-19T13:40:29;22.80;99.90
37300;DHT22;23184;51.902;12.836;2023-09-19T13:42:56;22.20;99.90
37300;DHT22;23184;51.902;12.836;2023-09-19T13:45:22;22.50;99.90
37300;DHT22;23184;51.902;12.836;2023-09-19T13:47:50;22.80;99.90
37300;DHT22;23184;51.902;12.836;2023-09-19T13:50:15;22.50;99.90
37300;DHT22;23184;51.902;12.836;2023-09-19T13:52:42;22.60;99.90
37300;DHT22;23184;51.902;12.836;2023-09-19T13:55:08;22.60;99.90
37300;DHT22;23184;51.902;12.836;2023-09-19T13:57:33;22.50;99.90
37300;DHT22;23184;51.902;12.836;2023-09-19T13:59:59;22.50;99.90
37300;DHT22;23184;51.902;12.836;2023-09-19T14:02:25;22.40;99.90
37300;DHT22;23184;51.902;12.836;2023-09-19T14:04:51;22.60;99.90
37300;DHT22;23184;51.902;12.836;2023-09-19T14:07:17;22.40;99.90
37300;DHT22;23184;51.902;12.836;2023-09-19T14:09:46;22.20;99.90
37300;DHT22;23184;51.902;12.836;2023-09-19T14:12:12;22.00;99.90
37300;DHT22;23184;51.902;12.836;2023-09-19T14:14:37;21.90;99.90
37300;DHT22;23184;51.902;12.836;2023-09-19T14:17:06;21.80;99.90
37300;DHT22;23184;51.902;12.836;2023-09-19T14:19:32;21.70;99.90
37300;DHT22;23184;51.902;12.836;2023-09-19T14:21:58;21.40;99.90
37300;DHT22;23184;51.902;12.836;2023-09-19T14:24:24;21.50;99.90
37300;DHT22;23184;51.902;12.836;2023-09-19T14:26:50;21.40;99.90
37300;DHT22;23184;51.902;12.836;2023-09-19T14:29:16;21.30;99.90
37300;DHT22;23184;51.902;12.836;2023-09-19T14:31:42;21.40;99.90
37300;DHT22;23184;51.902;12.836;2023-09-19T14:34:08;21.50;99.90
37300;DHT22;23184;51.902;12.836;2023-09-19T14:36:36;21.60;99.90
37300;DHT22;23184;51.902;12.836;2023-09-19T14:39:02;21.70;99.90
37300;DHT22;23184;51.902;12.836;2023-09-19T14:41:28;21.60;99.90
37300;DHT22;23184;51.902;12.836;2023-09-19T14:43:53;21.40;99.90
37300;DHT22;23184;51.902;12.836;2023-09-19T14:46:21;21.60;99.90
37300;DHT22;23184;51.902;12.836;2023-09-19T14:48:46;21.50;99.90
37300;DHT22;23184;51.902;12.836;2023-09-19T14:51:16;21.70;99.90
37300;DHT22;23184;51.902;12.836;2023-09-19T14:53:42;21.80;99.90
37300;DHT22;23184;51.902;12.836;2023-09-19T14:56:09;22.00;99.90
37300;DHT22;23184;51.902;12.836;2023-09-19T14:58:35;22.40;99.90
37300;DHT22;23184;51.902;12.836;2023-09-19T15:01:05;22.80;99.30
37300;DHT22;23184;51.902;12.836;2023-09-19T15:03:32;22.80;97.80
37300;DHT22;23184;51.902;12.836;2023-09-19T15:06:02;22.20;98.30
37300;DHT22;23184;51.902;12.836;2023-09-19T15:08:30;22.30;99.60
37300;DHT22;23184;51.902;12.836;2023-09-19T15:10:55;22.00;98.70
37300;DHT22;23184;51.902;12.836;2023-09-19T15:13:23;21.80;99.50
37300;DHT22;23184;51.902;12.836;2023-09-19T15:15:58;21.60;99.90
37300;DHT22;23184;51.902;12.836;2023-09-19T15:18:23;21.50;99.70
37300;DHT22;23184;51.902;12.836;2023-09-19T15:20:49;21.20;99.90
37300;DHT22;23184;51.902;12.836;2023-09-19T15:23:16;21.20;99.90
37300;DHT22;23184;51.902;12.836;2023-09-19T15:25:51;21.20;99.90
37300;DHT22;23184;51.902;12.836;2023-09-19T15:28:17;21.20;99.90
37300;DHT22;23184;51.902;12.836;2023-09-19T15:30:44;21.40;99.90
37300;DHT22;23184;51.902;12.836;2023-09-19T15:33:09;21.60;99.90
37300;DHT22;23184;51.902;12.836;2023-09-19T15:35:35;21.70;99.90
37300;DHT22;23184;51.902;12.836;2023-09-19T15:38:02;21.80;99.90
37300;DHT22;23184;51.902;12.836;2023-09-19T15:40:28;22.00;99.90
37300;DHT22;23184;51.902;12.836;2023-09-19T15:42:54;22.00;99.90
37300;DHT22;23184;51.902;12.836;2023-09-19T15:45:21;21.70;99.90
37300;DHT22;23184;51.902;12.836;2023-09-19T15:47:47;21.60;99.90
37300;DHT22;23184;51.902;12.836;2023-09-19T15:50:12;21.40;99.90
37300;DHT22;23184;51.902;12.836;2023-09-19T15:52:41;21.20;99.90
37300;DHT22;23184;51.902;12.836;2023-09-19T15:55:08;20.90;99.90
37300;DHT22;23184;51.902;12.836;2023-09-19T15:57:37;20.80;99.90
37300;DHT22;23184;51.902;12.836;2023-09-19T16:00:04;20.90;99.90
37300;DHT22;23184;51.902;12.836;2023-09-19T16:02:35;21.00;99.90
37300;DHT22;23184;51.902;12.836;2023-09-19T16:05:01;21.10;99.90
37300;DHT22;23184;51.902;12.836;2023-09-19T16:07:26;21.10;99.90
37300;DHT22;23184;51.902;12.836;2023-09-19T16:09:52;21.10;99.90
37300;DHT22;23184;51.902;12.836;2023-09-19T16:12:17;21.00;99.90